sensor_id;sensor_type;location;lat;lon;timestamp;P1;durP1;ratioP1;P2;durP2;ratioP2
13807;SDS011;40769;51.512;5.494;2023-01-29T00:02:01;18.67;;;15.80;;
13807;SDS011;40769;51.512;5.494;2023-01-29T00:04:28;18.27;;;15.97;;
13807;SDS011;40769;51.512;5.494;2023-01-29T00:06:54;18.07;;;15.63;;
13807;SDS011;40769;51.512;5.494;2023-01-29T00:09:19;18.23;;;15.23;;
13807;SDS011;40769;51.512;5.494;2023-01-29T00:11:45;19.23;;;15.77;;
13807;SDS011;40769;51.512;5.494;2023-01-29T00:14:11;17.63;;;14.53;;
13807;SDS011;40769;51.512;5.494;2023-01-29T00:16:37;14.90;;;12.53;;
13807;SDS011;40769;51.512;5.494;2023-01-29T00:19:03;14.27;;;12.13;;
13807;SDS011;40769;51.512;5.494;2023-01-29T00:21:29;15.70;;;12.93;;
13807;SDS011;40769;51.512;5.494;2023-01-29T00:23:56;14.10;;;11.67;;
13807;SDS011;40769;51.512;5.494;2023-01-29T00:26:22;12.33;;;10.60;;
13807;SDS011;40769;51.512;5.494;2023-01-29T00:28:48;10.93;;;9.53;;
13807;SDS011;40769;51.512;5.494;2023-01-29T00:31:18;13.00;;;11.47;;
13807;SDS011;40769;51.512;5.494;2023-01-29T00:33:46;16.30;;;14.10;;
13807;SDS011;40769;51.512;5.494;2023-01-29T00:36:13;15.83;;;13.63;;
13807;SDS011;40769;51.512;5.494;2023-01-29T00:38:42;17.80;;;14.83;;
13807;SDS011;40769;51.512;5.494;2023-01-29T00:41:09;16.97;;;14.33;;
13807;SDS011;40769;51.512;5.494;2023-01-29T00:43:54;17.77;;;14.97;;
13807;SDS011;40769;51.512;5.494;2023-01-29T00:46:39;16.10;;;13.57;;
13807;SDS011;40769;51.512;5.494;2023-01-29T00:49:04;17.20;;;14.93;;
13807;SDS011;40769;51.512;5.494;2023-01-29T00:51:31;15.87;;;14.17;;
13807;SDS011;40769;51.512;5.494;2023-01-29T00:53:56;17.43;;;14.10;;
13807;SDS011;40769;51.512;5.494;2023-01-29T00:56:28;15.07;;;13.43;;
13807;SDS011;40769;51.512;5.494;2023-01-29T00:58:54;14.27;;;11.97;;
13807;SDS011;40769;51.512;5.494;2023-01-29T01:01:20;15.70;;;12.87;;
13807;SDS011;40769;51.512;5.494;2023-01-29T01:04:06;13.53;;;11.67;;
13807;SDS011;40769;51.512;5.494;2023-01-29T01:06:32;12.20;;;10.67;;
13807;SDS011;40769;51.512;5.494;2023-01-29T01:09:01;10.97;;;9.47;;
13807;SDS011;40769;51.512;5.494;2023-01-29T01:11:45;14.40;;;10.73;;
13807;SDS011;40769;51.512;5.494;2023-01-29T01:14:11;16.50;;;13.07;;
13807;SDS011;40769;51.512;5.494;2023-01-29T01:16:36;16.07;;;13.63;;
13807;SDS011;40769;51.512;5.494;2023-01-29T01:19:02;17.40;;;15.20;;
13807;SDS011;40769;51.512;5.494;2023-01-29T01:21:28;16.70;;;14.10;;
13807;SDS011;40769;51.512;5.494;2023-01-29T01:23:54;20.47;;;15.17;;
13807;SDS011;40769;51.512;5.494;2023-01-29T01:26:19;17.97;;;13.80;;
13807;SDS011;40769;51.512;5.494;2023-01-29T01:28:45;16.20;;;13.47;;
13807;SDS011;40769;51.512;5.494;2023-01-29T01:31:11;18.90;;;14.30;;
13807;SDS011;40769;51.512;5.494;2023-01-29T01:33:38;16.97;;;14.40;;
13807;SDS011;40769;51.512;5.494;2023-01-29T01:36:05;17.03;;;13.53;;
13807;SDS011;40769;51.512;5.494;2023-01-29T01:38:37;14.40;;;12.87;;
13807;SDS011;40769;51.512;5.494;2023-01-29T01:41:12;17.23;;;13.47;;
13807;SDS011;40769;51.512;5.494;2023-01-29T01:43:50;17.37;;;14.27;;
13807;SDS011;40769;51.512;5.494;2023-01-29T01:46:18;18.87;;;14.87;;
13807;SDS011;40769;51.512;5.494;2023-01-29T01:48:45;19.93;;;15.57;;
13807;SDS011;40769;51.512;5.494;2023-01-29T01:51:13;14.97;;;12.37;;
13807;SDS011;40769;51.512;5.494;2023-01-29T01:53:42;16.97;;;13.83;;
13807;SDS011;40769;51.512;5.494;2023-01-29T01:56:17;18.53;;;14.57;;
13807;SDS011;40769;51.512;5.494;2023-01-29T01:58:52;20.33;;;15.90;;
13807;SDS011;40769;51.512;5.494;2023-01-29T02:01:20;20.77;;;16.13;;
13807;SDS011;40769;51.512;5.494;2023-01-29T02:03:55;20.20;;;16.00;;
13807;SDS011;40769;51.512;5.494;2023-01-29T02:06:44;23.33;;;16.97;;
13807;SDS011;40769;51.512;5.494;2023-01-29T02:09:40;20.83;;;16.50;;
13807;SDS011;40769;51.512;5.494;2023-01-29T02:12:10;20.43;;;15.73;;
13807;SDS011;40769;51.512;5.494;2023-01-29T02:14:38;19.57;;;16.17;;
13807;SDS011;40769;51.512;5.494;2023-01-29T02:17:08;21.57;;;17.00;;
13807;SDS011;40769;51.512;5.494;2023-01-29T02:22:25;21.60;;;17.03;;
13807;SDS011;40769;51.512;5.494;2023-01-29T02:25:09;20.40;;;16.77;;
13807;SDS011;40769;51.512;5.494;2023-01-29T02:33:22;15.50;;;12.80;;
13807;SDS011;40769;51.512;5.494;2023-01-29T02:38:44;22.70;;;17.20;;
13807;SDS011;40769;51.512;5.494;2023-01-29T02:41:42;22.33;;;17.60;;
13807;SDS011;40769;51.512;5.494;2023-01-29T02:46:36;23.47;;;18.03;;
13807;SDS011;40769;51.512;5.494;2023-01-29T02:52:04;23.70;;;17.57;;
13807;SDS011;40769;51.512;5.494;2023-01-29T02:54:41;22.30;;;16.73;;
13807;SDS011;40769;51.512;5.494;2023-01-29T02:57:14;20.97;;;16.50;;
13807;SDS011;40769;51.512;5.494;2023-01-29T02:59:57;21.63;;;17.23;;
13807;SDS011;40769;51.512;5.494;2023-01-29T03:02:44;22.37;;;17.80;;
13807;SDS011;40769;51.512;5.494;2023-01-29T03:05:16;22.33;;;17.43;;
13807;SDS011;40769;51.512;5.494;2023-01-29T03:07:50;21.53;;;17.10;;
13807;SDS011;40769;51.512;5.494;2023-01-29T03:12:53;22.00;;;17.37;;
13807;SDS011;40769;51.512;5.494;2023-01-29T03:15:51;19.77;;;16.07;;
13807;SDS011;40769;51.512;5.494;2023-01-29T03:18:25;17.23;;;14.00;;
13807;SDS011;40769;51.512;5.494;2023-01-29T03:20:57;21.47;;;16.53;;
13807;SDS011;40769;51.512;5.494;2023-01-29T03:23:27;19.23;;;16.13;;
13807;SDS011;40769;51.512;5.494;2023-01-29T03:26:14;21.43;;;17.23;;
13807;SDS011;40769;51.512;5.494;2023-01-29T03:29:00;23.47;;;18.13;;
13807;SDS011;40769;51.512;5.494;2023-01-29T03:31:46;21.13;;;17.67;;
13807;SDS011;40769;51.512;5.494;2023-01-29T03:34:31;21.90;;;18.20;;
13807;SDS011;40769;51.512;5.494;2023-01-29T03:37:16;21.63;;;17.07;;
13807;SDS011;40769;51.512;5.494;2023-01-29T03:39:59;21.20;;;17.60;;
13807;SDS011;40769;51.512;5.494;2023-01-29T03:45:20;20.70;;;16.30;;
13807;SDS011;40769;51.512;5.494;2023-01-29T03:48:05;21.40;;;17.27;;
13807;SDS011;40769;51.512;5.494;2023-01-29T03:58:29;19.23;;;16.27;;
13807;SDS011;40769;51.512;5.494;2023-01-29T04:03:36;17.47;;;15.43;;
13807;SDS011;40769;51.512;5.494;2023-01-29T04:06:12;18.40;;;15.80;;
13807;SDS011;40769;51.512;5.494;2023-01-29T04:11:37;22.03;;;17.47;;
13807;SDS011;40769;51.512;5.494;2023-01-29T04:14:09;20.93;;;17.83;;
13807;SDS011;40769;51.512;5.494;2023-01-29T04:16:36;23.67;;;19.40;;
13807;SDS011;40769;51.512;5.494;2023-01-29T04:19:05;21.97;;;19.27;;
13807;SDS011;40769;51.512;5.494;2023-01-29T04:21:31;20.53;;;17.10;;
13807;SDS011;40769;51.512;5.494;2023-01-29T04:24:01;20.30;;;16.67;;
13807;SDS011;40769;51.512;5.494;2023-01-29T04:26:44;20.13;;;17.93;;
13807;SDS011;40769;51.512;5.494;2023-01-29T04:45:29;20.93;;;18.53;;
13807;SDS011;40769;51.512;5.494;2023-01-29T04:48:23;19.67;;;16.03;;
13807;SDS011;40769;51.512;5.494;2023-01-29T04:51:16;17.70;;;15.80;;
13807;SDS011;40769;51.512;5.494;2023-01-29T04:56:17;22.63;;;18.90;;
13807;SDS011;40769;51.512;5.494;2023-01-29T04:58:56;18.83;;;16.67;;
13807;SDS011;40769;51.512;5.494;2023-01-29T05:01:26;18.60;;;15.97;;
13807;SDS011;40769;51.512;5.494;2023-01-29T05:03:57;19.53;;;16.87;;
13807;SDS011;40769;51.512;5.494;2023-01-29T05:06:26;17.47;;;15.53;;
13807;SDS011;40769;51.512;5.494;2023-01-29T05:08:54;19.63;;;16.87;;
13807;SDS011;40769;51.512;5.494;2023-01-29T05:11:21;20.40;;;17.40;;
13807;SDS011;40769;51.512;5.494;2023-01-29T05:13:49;18.40;;;16.13;;
13807;SDS011;40769;51.512;5.494;2023-01-29T05:16:19;20.93;;;17.60;;
13807;SDS011;40769;51.512;5.494;2023-01-29T05:18:49;20.60;;;18.40;;
13807;SDS011;40769;51.512;5.494;2023-01-29T05:21:16;21.07;;;18.27;;
13807;SDS011;40769;51.512;5.494;2023-01-29T05:23:42;21.07;;;18.27;;
13807;SDS011;40769;51.512;5.494;2023-01-29T05:26:18;20.63;;;18.37;;
13807;SDS011;40769;51.512;5.494;2023-01-29T05:29:03;20.73;;;18.43;;
13807;SDS011;40769;51.512;5.494;2023-01-29T05:31:29;19.57;;;16.83;;
13807;SDS011;40769;51.512;5.494;2023-01-29T05:33:55;20.17;;;17.97;;
13807;SDS011;40769;51.512;5.494;2023-01-29T05:36:21;22.07;;;18.90;;
13807;SDS011;40769;51.512;5.494;2023-01-29T05:38:46;22.97;;;19.80;;
13807;SDS011;40769;51.512;5.494;2023-01-29T05:41:12;21.90;;;19.10;;
13807;SDS011;40769;51.512;5.494;2023-01-29T05:43:37;22.00;;;18.90;;
13807;SDS011;40769;51.512;5.494;2023-01-29T05:46:03;21.73;;;19.30;;
13807;SDS011;40769;51.512;5.494;2023-01-29T05:48:29;21.20;;;18.97;;
13807;SDS011;40769;51.512;5.494;2023-01-29T05:50:59;22.87;;;19.80;;
13807;SDS011;40769;51.512;5.494;2023-01-29T05:53:25;20.33;;;17.83;;
13807;SDS011;40769;51.512;5.494;2023-01-29T05:55:52;22.13;;;18.63;;
13807;SDS011;40769;51.512;5.494;2023-01-29T05:58:17;18.87;;;15.93;;
13807;SDS011;40769;51.512;5.494;2023-01-29T06:00:43;23.27;;;19.87;;
13807;SDS011;40769;51.512;5.494;2023-01-29T06:03:09;22.53;;;19.33;;
13807;SDS011;40769;51.512;5.494;2023-01-29T06:05:37;22.17;;;19.83;;
13807;SDS011;40769;51.512;5.494;2023-01-29T06:08:03;23.47;;;20.80;;
13807;SDS011;40769;51.512;5.494;2023-01-29T06:10:29;24.70;;;20.67;;
13807;SDS011;40769;51.512;5.494;2023-01-29T06:12:58;24.07;;;21.00;;
13807;SDS011;40769;51.512;5.494;2023-01-29T06:15:24;22.50;;;20.10;;
13807;SDS011;40769;51.512;5.494;2023-01-29T06:17:52;23.23;;;20.73;;
13807;SDS011;40769;51.512;5.494;2023-01-29T06:20:18;23.63;;;21.03;;
13807;SDS011;40769;51.512;5.494;2023-01-29T06:22:44;23.70;;;20.03;;
13807;SDS011;40769;51.512;5.494;2023-01-29T06:25:10;22.93;;;20.27;;
13807;SDS011;40769;51.512;5.494;2023-01-29T06:27:35;22.73;;;20.33;;
13807;SDS011;40769;51.512;5.494;2023-01-29T06:30:02;24.67;;;20.83;;
13807;SDS011;40769;51.512;5.494;2023-01-29T06:32:29;23.53;;;20.87;;
13807;SDS011;40769;51.512;5.494;2023-01-29T06:34:54;22.77;;;20.30;;
13807;SDS011;40769;51.512;5.494;2023-01-29T06:37:20;23.13;;;20.63;;
13807;SDS011;40769;51.512;5.494;2023-01-29T06:39:46;21.57;;;18.83;;
13807;SDS011;40769;51.512;5.494;2023-01-29T06:42:11;21.07;;;18.77;;
13807;SDS011;40769;51.512;5.494;2023-01-29T06:44:37;20.50;;;18.17;;
13807;SDS011;40769;51.512;5.494;2023-01-29T06:47:02;21.90;;;19.20;;
13807;SDS011;40769;51.512;5.494;2023-01-29T06:49:28;19.60;;;17.57;;
13807;SDS011;40769;51.512;5.494;2023-01-29T06:51:54;18.50;;;16.53;;
13807;SDS011;40769;51.512;5.494;2023-01-29T06:54:19;24.37;;;21.03;;
13807;SDS011;40769;51.512;5.494;2023-01-29T06:56:45;24.50;;;21.90;;
13807;SDS011;40769;51.512;5.494;2023-01-29T06:59:10;23.93;;;21.30;;
13807;SDS011;40769;51.512;5.494;2023-01-29T07:01:40;23.93;;;21.37;;
13807;SDS011;40769;51.512;5.494;2023-01-29T07:04:08;24.73;;;22.13;;
13807;SDS011;40769;51.512;5.494;2023-01-29T07:06:37;24.90;;;22.20;;
13807;SDS011;40769;51.512;5.494;2023-01-29T07:09:03;26.10;;;21.87;;
13807;SDS011;40769;51.512;5.494;2023-01-29T07:11:29;22.47;;;20.07;;
13807;SDS011;40769;51.512;5.494;2023-01-29T07:13:54;23.57;;;21.10;;
13807;SDS011;40769;51.512;5.494;2023-01-29T07:16:20;21.50;;;18.83;;
13807;SDS011;40769;51.512;5.494;2023-01-29T07:18:46;22.57;;;19.63;;
13807;SDS011;40769;51.512;5.494;2023-01-29T07:21:11;22.87;;;20.53;;
13807;SDS011;40769;51.512;5.494;2023-01-29T07:23:37;25.60;;;22.90;;
13807;SDS011;40769;51.512;5.494;2023-01-29T07:26:03;21.63;;;19.33;;
13807;SDS011;40769;51.512;5.494;2023-01-29T07:28:29;20.40;;;18.27;;
13807;SDS011;40769;51.512;5.494;2023-01-29T07:30:56;23.73;;;21.20;;
13807;SDS011;40769;51.512;5.494;2023-01-29T07:33:22;18.77;;;16.80;;
13807;SDS011;40769;51.512;5.494;2023-01-29T07:35:48;22.43;;;20.03;;
13807;SDS011;40769;51.512;5.494;2023-01-29T07:38:14;22.67;;;20.30;;
13807;SDS011;40769;51.512;5.494;2023-01-29T07:40:39;21.67;;;19.33;;
13807;SDS011;40769;51.512;5.494;2023-01-29T07:43:06;23.93;;;21.37;;
13807;SDS011;40769;51.512;5.494;2023-01-29T07:45:32;24.17;;;21.27;;
13807;SDS011;40769;51.512;5.494;2023-01-29T07:48:02;23.13;;;20.73;;
13807;SDS011;40769;51.512;5.494;2023-01-29T07:50:31;23.73;;;20.00;;
13807;SDS011;40769;51.512;5.494;2023-01-29T07:52:58;24.13;;;21.53;;
13807;SDS011;40769;51.512;5.494;2023-01-29T07:55:24;25.10;;;22.47;;
13807;SDS011;40769;51.512;5.494;2023-01-29T07:57:56;24.70;;;22.10;;
13807;SDS011;40769;51.512;5.494;2023-01-29T08:00:24;23.90;;;20.50;;
13807;SDS011;40769;51.512;5.494;2023-01-29T08:02:50;23.50;;;21.00;;
13807;SDS011;40769;51.512;5.494;2023-01-29T08:05:15;21.33;;;19.03;;
13807;SDS011;40769;51.512;5.494;2023-01-29T08:07:41;18.10;;;16.27;;
13807;SDS011;40769;51.512;5.494;2023-01-29T08:10:07;20.80;;;18.60;;
13807;SDS011;40769;51.512;5.494;2023-01-29T08:12:33;22.70;;;20.27;;
13807;SDS011;40769;51.512;5.494;2023-01-29T08:14:58;20.40;;;18.20;;
13807;SDS011;40769;51.512;5.494;2023-01-29T08:17:24;21.87;;;19.57;;
13807;SDS011;40769;51.512;5.494;2023-01-29T08:19:50;22.13;;;19.73;;
13807;SDS011;40769;51.512;5.494;2023-01-29T08:22:15;24.70;;;21.73;;
13807;SDS011;40769;51.512;5.494;2023-01-29T08:24:41;22.07;;;19.23;;
13807;SDS011;40769;51.512;5.494;2023-01-29T08:27:07;23.33;;;20.80;;
13807;SDS011;40769;51.512;5.494;2023-01-29T08:29:33;21.87;;;19.53;;
13807;SDS011;40769;51.512;5.494;2023-01-29T08:31:59;20.37;;;18.20;;
13807;SDS011;40769;51.512;5.494;2023-01-29T08:34:25;19.87;;;17.70;;
13807;SDS011;40769;51.512;5.494;2023-01-29T08:36:50;20.57;;;18.47;;
13807;SDS011;40769;51.512;5.494;2023-01-29T08:39:17;19.33;;;17.23;;
13807;SDS011;40769;51.512;5.494;2023-01-29T08:41:43;19.67;;;16.87;;
13807;SDS011;40769;51.512;5.494;2023-01-29T08:44:08;17.43;;;15.63;;
13807;SDS011;40769;51.512;5.494;2023-01-29T08:46:34;16.30;;;14.03;;
13807;SDS011;40769;51.512;5.494;2023-01-29T08:49:01;21.30;;;19.00;;
13807;SDS011;40769;51.512;5.494;2023-01-29T08:51:26;21.27;;;19.07;;
13807;SDS011;40769;51.512;5.494;2023-01-29T08:53:52;21.97;;;19.67;;
13807;SDS011;40769;51.512;5.494;2023-01-29T08:56:18;20.80;;;18.70;;
13807;SDS011;40769;51.512;5.494;2023-01-29T08:58:43;19.47;;;17.47;;
13807;SDS011;40769;51.512;5.494;2023-01-29T09:01:10;19.40;;;17.33;;
13807;SDS011;40769;51.512;5.494;2023-01-29T09:03:37;19.03;;;16.83;;
13807;SDS011;40769;51.512;5.494;2023-01-29T09:06:08;19.83;;;16.87;;
13807;SDS011;40769;51.512;5.494;2023-01-29T09:08:35;19.40;;;17.30;;
13807;SDS011;40769;51.512;5.494;2023-01-29T09:11:00;19.73;;;17.63;;
13807;SDS011;40769;51.512;5.494;2023-01-29T09:13:26;19.53;;;17.27;;
13807;SDS011;40769;51.512;5.494;2023-01-29T09:15:51;17.67;;;15.80;;
13807;SDS011;40769;51.512;5.494;2023-01-29T09:18:17;17.77;;;15.90;;
13807;SDS011;40769;51.512;5.494;2023-01-29T09:20:43;18.80;;;16.83;;
13807;SDS011;40769;51.512;5.494;2023-01-29T09:23:09;19.57;;;17.50;;
13807;SDS011;40769;51.512;5.494;2023-01-29T09:25:35;20.57;;;18.37;;
13807;SDS011;40769;51.512;5.494;2023-01-29T09:28:01;20.40;;;18.30;;
13807;SDS011;40769;51.512;5.494;2023-01-29T09:30:27;20.17;;;17.83;;
13807;SDS011;40769;51.512;5.494;2023-01-29T09:32:52;19.47;;;17.47;;
13807;SDS011;40769;51.512;5.494;2023-01-29T09:35:18;20.17;;;18.00;;
13807;SDS011;40769;51.512;5.494;2023-01-29T09:37:48;20.07;;;17.90;;
13807;SDS011;40769;51.512;5.494;2023-01-29T09:40:25;20.97;;;18.77;;
13807;SDS011;40769;51.512;5.494;2023-01-29T09:43:16;19.90;;;17.83;;
13807;SDS011;40769;51.512;5.494;2023-01-29T09:46:04;18.37;;;16.40;;
13807;SDS011;40769;51.512;5.494;2023-01-29T09:48:54;19.73;;;17.73;;
13807;SDS011;40769;51.512;5.494;2023-01-29T09:51:49;20.30;;;17.37;;
13807;SDS011;40769;51.512;5.494;2023-01-29T09:54:22;17.77;;;15.80;;
13807;SDS011;40769;51.512;5.494;2023-01-29T09:56:53;18.90;;;16.90;;
13807;SDS011;40769;51.512;5.494;2023-01-29T09:59:21;18.20;;;15.53;;
13807;SDS011;40769;51.512;5.494;2023-01-29T10:09:49;18.30;;;16.37;;
13807;SDS011;40769;51.512;5.494;2023-01-29T10:23:45;17.20;;;15.40;;
13807;SDS011;40769;51.512;5.494;2023-01-29T10:26:17;18.30;;;16.30;;
13807;SDS011;40769;51.512;5.494;2023-01-29T10:28:47;17.23;;;15.47;;
13807;SDS011;40769;51.512;5.494;2023-01-29T10:31:17;17.87;;;15.97;;
13807;SDS011;40769;51.512;5.494;2023-01-29T10:34:02;17.07;;;15.30;;
13807;SDS011;40769;51.512;5.494;2023-01-29T10:36:47;17.87;;;15.57;;
13807;SDS011;40769;51.512;5.494;2023-01-29T10:39:17;18.27;;;16.40;;
13807;SDS011;40769;51.512;5.494;2023-01-29T10:42:01;17.73;;;15.90;;
13807;SDS011;40769;51.512;5.494;2023-01-29T10:44:53;14.77;;;13.27;;
13807;SDS011;40769;51.512;5.494;2023-01-29T10:47:34;17.03;;;15.23;;
13807;SDS011;40769;51.512;5.494;2023-01-29T10:58:59;16.20;;;14.30;;
13807;SDS011;40769;51.512;5.494;2023-01-29T11:01:29;16.00;;;14.30;;
13807;SDS011;40769;51.512;5.494;2023-01-29T11:04:00;16.30;;;14.63;;
13807;SDS011;40769;51.512;5.494;2023-01-29T11:06:28;15.17;;;13.67;;
13807;SDS011;40769;51.512;5.494;2023-01-29T11:09:01;15.10;;;13.60;;
13807;SDS011;40769;51.512;5.494;2023-01-29T11:11:39;16.93;;;15.13;;
13807;SDS011;40769;51.512;5.494;2023-01-29T11:14:21;14.77;;;13.17;;
13807;SDS011;40769;51.512;5.494;2023-01-29T11:16:50;15.20;;;13.70;;
13807;SDS011;40769;51.512;5.494;2023-01-29T11:19:17;16.52;;;14.75;;
13807;SDS011;40769;51.512;5.494;2023-01-29T11:24:23;15.05;;;13.55;;
13807;SDS011;40769;51.512;5.494;2023-01-29T11:26:50;15.60;;;13.93;;
13807;SDS011;40769;51.512;5.494;2023-01-29T11:31:57;15.15;;;13.60;;
13807;SDS011;40769;51.512;5.494;2023-01-29T11:34:24;15.18;;;13.65;;
13807;SDS011;40769;51.512;5.494;2023-01-29T11:37:02;15.60;;;13.95;;
13807;SDS011;40769;51.512;5.494;2023-01-29T11:39:29;14.57;;;13.07;;
13807;SDS011;40769;51.512;5.494;2023-01-29T11:42:03;14.57;;;13.15;;
13807;SDS011;40769;51.512;5.494;2023-01-29T11:44:30;15.35;;;13.48;;
13807;SDS011;40769;51.512;5.494;2023-01-29T11:47:07;15.47;;;13.87;;
13807;SDS011;40769;51.512;5.494;2023-01-29T11:49:34;15.15;;;13.60;;
13807;SDS011;40769;51.512;5.494;2023-01-29T11:52:02;15.57;;;13.98;;
13807;SDS011;40769;51.512;5.494;2023-01-29T11:54:31;16.00;;;14.40;;
13807;SDS011;40769;51.512;5.494;2023-01-29T11:57:02;16.97;;;15.27;;
13807;SDS011;40769;51.512;5.494;2023-01-29T11:59:41;16.65;;;15.02;;
13807;SDS011;40769;51.512;5.494;2023-01-29T12:04:57;15.88;;;14.32;;
13807;SDS011;40769;51.512;5.494;2023-01-29T12:07:26;17.00;;;15.20;;
13807;SDS011;40769;51.512;5.494;2023-01-29T12:09:53;14.20;;;12.80;;
13807;SDS011;40769;51.512;5.494;2023-01-29T12:12:28;17.20;;;15.43;;
13807;SDS011;40769;51.512;5.494;2023-01-29T12:15:03;15.98;;;14.25;;
13807;SDS011;40769;51.512;5.494;2023-01-29T12:17:56;14.82;;;13.27;;
13807;SDS011;40769;51.512;5.494;2023-01-29T12:21:17;16.33;;;14.63;;
13807;SDS011;40769;51.512;5.494;2023-01-29T12:27:01;16.83;;;15.15;;
13807;SDS011;40769;51.512;5.494;2023-01-29T12:29:30;16.80;;;15.18;;
13807;SDS011;40769;51.512;5.494;2023-01-29T12:37:55;16.77;;;15.05;;
13807;SDS011;40769;51.512;5.494;2023-01-29T12:40:24;16.27;;;14.70;;
13807;SDS011;40769;51.512;5.494;2023-01-29T12:42:54;15.85;;;14.30;;
13807;SDS011;40769;51.512;5.494;2023-01-29T12:45:24;16.80;;;15.10;;
13807;SDS011;40769;51.512;5.494;2023-01-29T12:47:56;16.48;;;14.77;;
13807;SDS011;40769;51.512;5.494;2023-01-29T12:50:30;15.55;;;14.05;;
13807;SDS011;40769;51.512;5.494;2023-01-29T12:56:09;16.05;;;14.40;;
13807;SDS011;40769;51.512;5.494;2023-01-29T12:58:46;15.65;;;14.15;;
13807;SDS011;40769;51.512;5.494;2023-01-29T13:03:50;15.30;;;13.77;;
13807;SDS011;40769;51.512;5.494;2023-01-29T13:06:27;17.03;;;15.17;;
13807;SDS011;40769;51.512;5.494;2023-01-29T13:08:59;14.10;;;12.70;;
13807;SDS011;40769;51.512;5.494;2023-01-29T13:11:36;13.50;;;12.20;;
13807;SDS011;40769;51.512;5.494;2023-01-29T13:14:13;16.88;;;15.20;;
13807;SDS011;40769;51.512;5.494;2023-01-29T13:16:46;17.73;;;15.93;;
13807;SDS011;40769;51.512;5.494;2023-01-29T13:19:25;18.30;;;16.48;;
13807;SDS011;40769;51.512;5.494;2023-01-29T13:21:56;17.00;;;15.00;;
13807;SDS011;40769;51.512;5.494;2023-01-29T13:24:26;16.67;;;15.13;;
13807;SDS011;40769;51.512;5.494;2023-01-29T13:26:59;17.10;;;15.50;;
13807;SDS011;40769;51.512;5.494;2023-01-29T13:29:26;16.47;;;14.77;;
13807;SDS011;40769;51.512;5.494;2023-01-29T13:32:03;15.85;;;14.25;;
13807;SDS011;40769;51.512;5.494;2023-01-29T13:34:36;18.70;;;16.80;;
13807;SDS011;40769;51.512;5.494;2023-01-29T13:37:10;19.17;;;17.25;;
13807;SDS011;40769;51.512;5.494;2023-01-29T13:39:45;18.27;;;16.50;;
13807;SDS011;40769;51.512;5.494;2023-01-29T13:42:16;19.33;;;17.42;;
13807;SDS011;40769;51.512;5.494;2023-01-29T13:44:53;18.48;;;16.67;;
13807;SDS011;40769;51.512;5.494;2023-01-29T13:47:27;17.33;;;15.55;;
13807;SDS011;40769;51.512;5.494;2023-01-29T13:53:16;18.30;;;16.50;;
13807;SDS011;40769;51.512;5.494;2023-01-29T14:02:44;20.45;;;18.35;;
13807;SDS011;40769;51.512;5.494;2023-01-29T14:10:41;20.65;;;18.55;;
13807;SDS011;40769;51.512;5.494;2023-01-29T14:15:46;21.57;;;19.37;;
13807;SDS011;40769;51.512;5.494;2023-01-29T14:18:33;19.75;;;17.75;;
13807;SDS011;40769;51.512;5.494;2023-01-29T14:21:04;21.30;;;18.93;;
13807;SDS011;40769;51.512;5.494;2023-01-29T14:23:46;19.55;;;17.55;;
13807;SDS011;40769;51.512;5.494;2023-01-29T14:26:25;21.60;;;19.27;;
13807;SDS011;40769;51.512;5.494;2023-01-29T14:31:41;20.45;;;18.45;;
13807;SDS011;40769;51.512;5.494;2023-01-29T14:34:19;19.88;;;17.85;;
13807;SDS011;40769;51.512;5.494;2023-01-29T14:36:50;19.80;;;17.73;;
13807;SDS011;40769;51.512;5.494;2023-01-29T14:39:20;19.98;;;17.98;;
13807;SDS011;40769;51.512;5.494;2023-01-29T14:41:49;19.58;;;17.67;;
13807;SDS011;40769;51.512;5.494;2023-01-29T14:47:19;17.98;;;16.17;;
13807;SDS011;40769;51.512;5.494;2023-01-29T14:53:24;18.70;;;16.80;;
13807;SDS011;40769;51.512;5.494;2023-01-29T14:56:14;17.92;;;16.15;;
13807;SDS011;40769;51.512;5.494;2023-01-29T14:58:48;19.45;;;17.48;;
13807;SDS011;40769;51.512;5.494;2023-01-29T15:03:59;18.88;;;16.88;;
13807;SDS011;40769;51.512;5.494;2023-01-29T15:06:44;20.45;;;18.25;;
13807;SDS011;40769;51.512;5.494;2023-01-29T15:09:39;16.40;;;14.70;;
13807;SDS011;40769;51.512;5.494;2023-01-29T15:12:22;19.50;;;17.50;;
13807;SDS011;40769;51.512;5.494;2023-01-29T15:14:58;17.33;;;15.63;;
13807;SDS011;40769;51.512;5.494;2023-01-29T15:17:32;18.15;;;16.30;;
13807;SDS011;40769;51.512;5.494;2023-01-29T15:20:00;19.15;;;17.25;;
13807;SDS011;40769;51.512;5.494;2023-01-29T15:22:26;19.63;;;17.55;;
13807;SDS011;40769;51.512;5.494;2023-01-29T15:25:09;19.95;;;18.00;;
13807;SDS011;40769;51.512;5.494;2023-01-29T15:27:41;20.85;;;18.75;;
13807;SDS011;40769;51.512;5.494;2023-01-29T15:30:22;19.90;;;17.90;;
13807;SDS011;40769;51.512;5.494;2023-01-29T15:32:55;21.20;;;19.00;;
13807;SDS011;40769;51.512;5.494;2023-01-29T15:35:37;20.60;;;18.50;;
13807;SDS011;40769;51.512;5.494;2023-01-29T15:38:06;20.08;;;18.08;;
13807;SDS011;40769;51.512;5.494;2023-01-29T15:40:41;20.30;;;18.20;;
13807;SDS011;40769;51.512;5.494;2023-01-29T15:45:49;19.27;;;17.27;;
13807;SDS011;40769;51.512;5.494;2023-01-29T15:48:17;17.88;;;16.08;;
13807;SDS011;40769;51.512;5.494;2023-01-29T15:50:46;16.60;;;14.95;;
13807;SDS011;40769;51.512;5.494;2023-01-29T15:53:20;18.83;;;16.92;;
13807;SDS011;40769;51.512;5.494;2023-01-29T15:55:49;19.13;;;17.13;;
13807;SDS011;40769;51.512;5.494;2023-01-29T15:58:20;18.50;;;16.63;;
13807;SDS011;40769;51.512;5.494;2023-01-29T16:00:52;17.77;;;15.93;;
13807;SDS011;40769;51.512;5.494;2023-01-29T16:03:21;21.33;;;19.02;;
13807;SDS011;40769;51.512;5.494;2023-01-29T16:05:48;16.75;;;15.07;;
13807;SDS011;40769;51.512;5.494;2023-01-29T16:08:16;16.23;;;14.63;;
13807;SDS011;40769;51.512;5.494;2023-01-29T16:10:51;16.08;;;14.38;;
13807;SDS011;40769;51.512;5.494;2023-01-29T16:13:20;15.98;;;14.27;;
13807;SDS011;40769;51.512;5.494;2023-01-29T16:15:58;17.73;;;15.93;;
13807;SDS011;40769;51.512;5.494;2023-01-29T16:18:29;18.88;;;16.88;;
13807;SDS011;40769;51.512;5.494;2023-01-29T16:21:13;19.13;;;17.10;;
13807;SDS011;40769;51.512;5.494;2023-01-29T16:23:47;16.85;;;15.15;;
13807;SDS011;40769;51.512;5.494;2023-01-29T16:26:23;20.00;;;18.00;;
13807;SDS011;40769;51.512;5.494;2023-01-29T16:28:52;18.63;;;16.75;;
13807;SDS011;40769;51.512;5.494;2023-01-29T16:31:26;18.25;;;16.50;;
13807;SDS011;40769;51.512;5.494;2023-01-29T16:33:53;22.83;;;19.73;;
13807;SDS011;40769;51.512;5.494;2023-01-29T16:36:22;18.67;;;16.73;;
13807;SDS011;40769;51.512;5.494;2023-01-29T16:38:57;17.42;;;15.63;;
13807;SDS011;40769;51.512;5.494;2023-01-29T16:41:30;18.20;;;15.88;;
13807;SDS011;40769;51.512;5.494;2023-01-29T16:46:30;21.47;;;17.63;;
13807;SDS011;40769;51.512;5.494;2023-01-29T16:49:01;18.15;;;16.35;;
13807;SDS011;40769;51.512;5.494;2023-01-29T16:51:49;18.85;;;16.80;;
13807;SDS011;40769;51.512;5.494;2023-01-29T16:54:15;19.67;;;17.48;;
13807;SDS011;40769;51.512;5.494;2023-01-29T16:56:46;18.75;;;16.23;;
13807;SDS011;40769;51.512;5.494;2023-01-29T16:59:19;17.38;;;15.68;;
13807;SDS011;40769;51.512;5.494;2023-01-29T17:01:51;18.77;;;16.63;;
13807;SDS011;40769;51.512;5.494;2023-01-29T17:04:20;19.00;;;16.15;;
13807;SDS011;40769;51.512;5.494;2023-01-29T17:06:47;18.98;;;17.08;;